Time;durP1;ratioP1;P1;durP2;ratioP2;P2;SDS_P1;SDS_P2;PMS_P1;PMS_P2;Temp;Humidity;BMP_temperature;BMP_pressure;BME280_temperature;BME280_humidity;BME280_pressure;Samples;Min_cycle;Max_cycle;Signal;HPM_P1;HPM_P2
2023/08/06 00:02:18;;;;;;;6.88;5.65;;;;;;;;;;5020782;28;20129;-82
2023/08/06 00:04:43;;;;;;;9.38;5.88;;;;;;;;;;5010870;28;20393;-83
2023/08/06 00:07:09;;;;;;;10.77;5.63;;;;;;;;;;5028581;28;20050;-82
2023/08/06 00:09:34;;;;;;;6.30;5.53;;;;;;;;;;5010582;28;20030;-82
2023/08/06 00:12:00;;;;;;;8.75;5.80;;;;;;;;;;5027955;28;20030;-82
2023/08/06 00:14:25;;;;;;;7.10;5.63;;;;;;;;;;5011865;28;20415;-82
2023/08/06 00:16:51;;;;;;;8.93;5.78;;;;;;;;;;5011421;28;20034;-82
2023/08/06 00:19:16;;;;;;;8.32;5.95;;;;;;;;;;5010449;28;20030;-81
2023/08/06 00:21:41;;;;;;;6.50;5.63;;;;;;;;;;5028468;28;20034;-82
2023/08/06 00:24:07;;;;;;;10.10;6.22;;;;;;;;;;5012709;28;20503;-82
2023/08/06 00:26:32;;;;;;;7.85;5.68;;;;;;;;;;5012774;28;20378;-82
2023/08/06 00:28:58;;;;;;;9.07;5.85;;;;;;;;;;5011237;28;20029;-82
2023/08/06 00:31:23;;;;;;;7.43;5.97;;;;;;;;;;5012850;28;20030;-83
2023/08/06 00:33:49;;;;;;;9.38;5.78;;;;;;;;;;5012641;28;20435;-82
2023/08/06 00:36:14;;;;;;;8.23;5.47;;;;;;;;;;5011359;28;20108;-82
2023/08/06 00:38:40;;;;;;;7.03;6.15;;;;;;;;;;5011390;28;20076;-82
2023/08/06 00:41:05;;;;;;;8.15;6.07;;;;;;;;;;4994946;28;20037;-82
2023/08/06 00:43:31;;;;;;;6.22;5.45;;;;;;;;;;5011356;28;20480;-82
2023/08/06 00:45:56;;;;;;;8.88;6.05;;;;;;;;;;5011511;28;20034;-82
2023/08/06 00:48:22;;;;;;;10.60;6.00;;;;;;;;;;5011274;28;20040;-82
2023/08/06 00:50:47;;;;;;;10.27;6.10;;;;;;;;;;4995116;28;20054;-82
2023/08/06 00:53:13;;;;;;;7.55;5.60;;;;;;;;;;5015392;28;20026;-82
2023/08/06 00:55:40;;;;;;;9.23;5.65;;;;;;;;;;5015084;28;20041;-82
2023/08/06 00:58:05;;;;;;;7.90;5.90;;;;;;;;;;5032004;28;20034;-82
2023/08/06 01:00:31;;;;;;;6.55;5.07;;;;;;;;;;5016429;28;20033;-82
2023/08/06 01:02:56;;;;;;;8.27;5.32;;;;;;;;;;5016395;28;20034;-82
2023/08/06 01:05:22;;;;;;;6.93;5.47;;;;;;;;;;5016441;28;20107;-82
2023/08/06 01:07:51;;;;;;;6.78;5.30;;;;;;;;;;5021793;28;20034;-82
2023/08/06 01:10:52;;;;;;;8.25;5.47;;;;;;;;;;5013745;28;20100;-82
2023/08/06 01:13:25;;;;;;;8.18;5.38;;;;;;;;;;4946068;28;20055;-82
2023/08/06 01:15:52;;;;;;;7.82;4.93;;;;;;;;;;4992371;28;20037;-82
2023/08/06 01:18:17;;;;;;;6.93;5.20;;;;;;;;;;4998766;28;20026;-82
2023/08/06 01:20:43;;;;;;;7.25;5.55;;;;;;;;;;4998653;28;20044;-82
2023/08/06 01:23:08;;;;;;;7.53;6.00;;;;;;;;;;4998571;28;20072;-82
2023/08/06 01:25:34;;;;;;;7.47;5.60;;;;;;;;;;5014425;28;20044;-82
2023/08/06 01:28:04;;;;;;;9.50;5.80;;;;;;;;;;5014561;28;20025;-82
2023/08/06 01:30:30;;;;;;;7.68;6.20;;;;;;;;;;5031172;28;20042;-82
2023/08/06 01:32:59;;;;;;;8.90;6.20;;;;;;;;;;5014678;28;20531;-82
2023/08/06 01:35:26;;;;;;;8.05;6.00;;;;;;;;;;5010891;28;20083;-82
2023/08/06 01:37:52;;;;;;;8.30;5.65;;;;;;;;;;5014759;28;20175;-82
2023/08/06 01:40:18;;;;;;;11.02;5.60;;;;;;;;;;5014696;28;20044;-82
2023/08/06 01:42:43;;;;;;;10.18;6.15;;;;;;;;;;5014629;28;20025;-82
2023/08/06 01:45:09;;;;;;;9.73;6.28;;;;;;;;;;4994991;28;20409;-82
2023/08/06 01:47:34;;;;;;;7.82;6.22;;;;;;;;;;5012793;28;20495;-82
2023/08/06 01:50:00;;;;;;;10.57;6.13;;;;;;;;;;5014244;28;20038;-83
2023/08/06 01:52:26;;;;;;;11.93;6.50;;;;;;;;;;5030565;28;20397;-82
2023/08/06 01:54:51;;;;;;;9.15;6.00;;;;;;;;;;5014278;28;20035;-82
2023/08/06 01:57:17;;;;;;;8.88;5.72;;;;;;;;;;5031190;28;20489;-82
2023/08/06 01:59:43;;;;;;;7.45;5.70;;;;;;;;;;5014155;28;20040;-82
2023/08/06 02:02:08;;;;;;;8.85;5.95;;;;;;;;;;4996480;28;20499;-82
2023/08/06 02:04:34;;;;;;;9.25;5.88;;;;;;;;;;5015454;28;20034;-82
2023/08/06 02:06:59;;;;;;;10.18;5.50;;;;;;;;;;5013856;28;20088;-82
2023/08/06 02:09:24;;;;;;;9.60;5.95;;;;;;;;;;5010833;28;20033;-82
2023/08/06 02:11:51;;;;;;;6.57;5.70;;;;;;;;;;4995049;28;20030;-82
2023/08/06 02:14:17;;;;;;;6.45;5.47;;;;;;;;;;4997791;28;20057;-82
2023/08/06 02:16:42;;;;;;;10.55;6.22;;;;;;;;;;5030117;28;20058;-82
2023/08/06 02:19:08;;;;;;;10.75;5.78;;;;;;;;;;5015178;28;20397;-82
2023/08/06 02:21:33;;;;;;;8.23;5.90;;;;;;;;;;5000639;28;20829;-82
2023/08/06 02:23:59;;;;;;;6.35;5.63;;;;;;;;;;5015214;28;20030;-82
2023/08/06 02:26:24;;;;;;;8.60;5.95;;;;;;;;;;5013701;28;20021;-82
2023/08/06 02:28:50;;;;;;;10.50;6.10;;;;;;;;;;5004496;28;20045;-82
2023/08/06 02:31:15;;;;;;;12.23;6.53;;;;;;;;;;4993045;28;20022;-82
2023/08/06 02:33:41;;;;;;;9.85;6.07;;;;;;;;;;5030073;28;20048;-82
2023/08/06 02:36:06;;;;;;;9.75;6.05;;;;;;;;;;5014634;28;20049;-82
2023/08/06 02:38:32;;;;;;;8.05;5.70;;;;;;;;;;5030305;28;20120;-82
2023/08/06 02:40:57;;;;;;;10.07;6.20;;;;;;;;;;5029974;28;20078;-82
2023/08/06 02:43:23;;;;;;;10.20;6.63;;;;;;;;;;5013557;28;20045;-82
2023/08/06 02:45:49;;;;;;;11.02;6.55;;;;;;;;;;5000273;28;20038;-82
2023/08/06 02:48:14;;;;;;;8.27;6.03;;;;;;;;;;5029974;28;20482;-82
2023/08/06 02:50:40;;;;;;;9.27;7.07;;;;;;;;;;5012860;28;20076;-82
2023/08/06 02:53:06;;;;;;;9.73;6.35;;;;;;;;;;5013380;28;20044;-82
2023/08/06 02:55:33;;;;;;;8.13;6.00;;;;;;;;;;5014063;28;20392;-82
2023/08/06 02:58:00;;;;;;;7.82;5.70;;;;;;;;;;4996907;28;20033;-82
2023/08/06 03:00:25;;;;;;;10.13;6.75;;;;;;;;;;5012924;28;20025;-82
2023/08/06 03:02:51;;;;;;;12.63;6.72;;;;;;;;;;4993527;28;20061;-82
2023/08/06 03:05:26;;;;;;;11.17;7.00;;;;;;;;;;5010021;28;20033;-82
2023/08/06 03:07:52;;;;;;;11.70;7.07;;;;;;;;;;4996651;28;20280;-82
2023/08/06 03:10:21;;;;;;;10.15;7.22;;;;;;;;;;4996634;28;20029;-82
2023/08/06 03:12:50;;;;;;;11.13;6.47;;;;;;;;;;5012657;28;20046;-82
2023/08/06 03:15:16;;;;;;;11.07;6.93;;;;;;;;;;4996362;28;20111;-82
2023/08/06 03:17:44;;;;;;;11.52;6.78;;;;;;;;;;4996689;28;20068;-82
2023/08/06 03:20:10;;;;;;;11.60;6.95;;;;;;;;;;4995544;28;20030;-82
2023/08/06 03:22:35;;;;;;;16.17;7.60;;;;;;;;;;5012888;28;20439;-82
2023/08/06 03:25:01;;;;;;;10.48;6.47;;;;;;;;;;5012205;28;20030;-82
2023/08/06 03:27:27;;;;;;;9.65;6.70;;;;;;;;;;4996393;28;20030;-82
2023/08/06 03:29:52;;;;;;;10.23;6.53;;;;;;;;;;4995314;28;20028;-82
2023/08/06 03:32:20;;;;;;;11.98;6.88;;;;;;;;;;4992787;28;20034;-82
2023/08/06 03:34:46;;;;;;;10.07;6.28;;;;;;;;;;4988717;28;20029;-82
2023/08/06 03:37:13;;;;;;;11.55;6.82;;;;;;;;;;5012111;28;20125;-82
2023/08/06 03:39:38;;;;;;;8.18;6.68;;;;;;;;;;4995803;28;20108;-82
2023/08/06 03:42:04;;;;;;;9.75;6.70;;;;;;;;;;4995856;28;20037;-82
2023/08/06 03:44:30;;;;;;;10.02;6.70;;;;;;;;;;5020972;28;20405;-82
2023/08/06 03:46:56;;;;;;;11.40;7.05;;;;;;;;;;4995911;28;20084;-82
2023/08/06 03:49:22;;;;;;;11.32;7.00;;;;;;;;;;5010915;28;20030;-82
2023/08/06 03:51:47;;;;;;;10.52;6.85;;;;;;;;;;5000763;28;20421;-81
2023/08/06 03:54:13;;;;;;;15.63;7.15;;;;;;;;;;5012908;28;20033;-82
2023/08/06 03:56:38;;;;;;;10.82;7.18;;;;;;;;;;4992839;28;20037;-82
2023/08/06 03:59:04;;;;;;;12.45;7.13;;;;;;;;;;5006119;28;20036;-82
2023/08/06 04:01:30;;;;;;;10.48;7.05;;;;;;;;;;4999895;28;20079;-82
2023/08/06 04:03:55;;;;;;;12.05;7.10;;;;;;;;;;4995539;28;20048;-82
2023/08/06 04:06:21;;;;;;;9.05;6.70;;;;;;;;;;5013105;28;20030;-82
2023/08/06 04:08:46;;;;;;;12.75;7.20;;;;;;;;;;4995537;28;20113;-82
2023/08/06 04:11:13;;;;;;;9.07;6.43;;;;;;;;;;5011565;28;20062;-82
2023/08/06 04:13:44;;;;;;;10.93;6.53;;;;;;;;;;4994875;28;20123;-82
2023/08/06 04:16:10;;;;;;;8.23;6.40;;;;;;;;;;5011770;28;20033;-82
2023/08/06 04:18:35;;;;;;;11.75;6.65;;;;;;;;;;5011700;28;20030;-81
2023/08/06 04:21:01;;;;;;;9.82;6.90;;;;;;;;;;5027777;28;20045;-82
2023/08/06 04:23:26;;;;;;;9.18;6.97;;;;;;;;;;5027757;28;20041;-82
2023/08/06 04:25:58;;;;;;;13.25;6.78;;;;;;;;;;5011397;28;20104;-82
2023/08/06 04:28:27;;;;;;;11.30;6.85;;;;;;;;;;5011354;28;20149;-82
2023/08/06 04:30:53;;;;;;;10.48;6.72;;;;;;;;;;4991682;28;20498;-82
2023/08/06 04:33:20;;;;;;;8.57;6.60;;;;;;;;;;5026557;28;20534;-82
2023/08/06 04:35:46;;;;;;;14.60;7.07;;;;;;;;;;4994631;28;20038;-82
2023/08/06 04:38:11;;;;;;;9.65;6.70;;;;;;;;;;5010144;28;20493;-82
2023/08/06 04:40:37;;;;;;;10.98;6.75;;;;;;;;;;5011462;28;20139;-82
2023/08/06 04:43:03;;;;;;;11.00;6.80;;;;;;;;;;5011283;28;20041;-82
2023/08/06 04:45:32;;;;;;;7.88;6.60;;;;;;;;;;4995300;28;20025;-82
2023/08/06 04:47:57;;;;;;;8.65;6.25;;;;;;;;;;4994680;28;20192;-83
2023/08/06 04:50:23;;;;;;;12.95;6.80;;;;;;;;;;5012433;28;20032;-83
2023/08/06 04:52:48;;;;;;;12.57;6.32;;;;;;;;;;5011326;28;20041;-83
2023/08/06 04:55:13;;;;;;;11.18;6.38;;;;;;;;;;5010847;28;20489;-82
2023/08/06 04:57:39;;;;;;;8.85;6.38;;;;;;;;;;4995073;28;20547;-83
2023/08/06 05:00:05;;;;;;;11.23;6.50;;;;;;;;;;4994644;28;20045;-83
2023/08/06 05:02:34;;;;;;;8.27;6.25;;;;;;;;;;5012650;28;20065;-83
2023/08/06 05:05:00;;;;;;;11.35;6.65;;;;;;;;;;5012257;28;20131;-83
2023/08/06 05:07:25;;;;;;;12.32;6.22;;;;;;;;;;5011572;28;20065;-83
2023/08/06 05:09:51;;;;;;;9.45;6.38;;;;;;;;;;5007366;28;20030;-83
2023/08/06 05:12:16;;;;;;;7.97;6.30;;;;;;;;;;5010409;28;20116;-84
2023/08/06 05:14:42;;;;;;;8.02;6.03;;;;;;;;;;5001955;28;20085;-84
2023/08/06 05:17:07;;;;;;;9.93;5.93;;;;;;;;;;5009606;28;20068;-83
2023/08/06 05:19:33;;;;;;;7.82;6.07;;;;;;;;;;5010900;28;20022;-83
2023/08/06 05:21:58;;;;;;;9.00;6.05;;;;;;;;;;5011819;28;20091;-83
2023/08/06 05:24:24;;;;;;;10.63;6.07;;;;;;;;;;5017154;28;20037;-82
2023/08/06 05:26:49;;;;;;;9.15;5.68;;;;;;;;;;5008392;28;20389;-83
2023/08/06 05:29:16;;;;;;;9.68;5.78;;;;;;;;;;5024880;28;20038;-82
2023/08/06 05:31:41;;;;;;;8.10;5.45;;;;;;;;;;5024597;28;20031;-84
2023/08/06 05:34:07;;;;;;;7.90;5.30;;;;;;;;;;5011144;28;20029;-83
2023/08/06 05:36:33;;;;;;;6.68;4.93;;;;;;;;;;5030052;28;20404;-84
2023/08/06 05:38:58;;;;;;;7.68;5.20;;;;;;;;;;5010830;28;20481;-83
2023/08/06 05:41:24;;;;;;;7.78;5.32;;;;;;;;;;5031096;28;20112;-83
2023/08/06 05:43:49;;;;;;;7.35;4.93;;;;;;;;;;5014343;28;20065;-85
2023/08/06 05:46:15;;;;;;;8.10;5.07;;;;;;;;;;5014862;28;20030;-83
2023/08/06 05:48:40;;;;;;;10.15;4.60;;;;;;;;;;5015637;28;20041;-85
2023/08/06 05:51:06;;;;;;;8.07;4.80;;;;;;;;;;5015718;28;20041;-83
2023/08/06 05:53:31;;;;;;;8.30;4.80;;;;;;;;;;4997810;28;20048;-84
2023/08/06 05:55:56;;;;;;;8.82;5.10;;;;;;;;;;5011500;28;20025;-84
2023/08/06 05:58:24;;;;;;;6.85;4.72;;;;;;;;;;5030690;28;20026;-81
2023/08/06 06:00:49;;;;;;;8.10;4.97;;;;;;;;;;5013276;28;20116;-85
2023/08/06 06:03:15;;;;;;;6.38;4.60;;;;;;;;;;5013738;28;20053;-83
2023/08/06 06:05:40;;;;;;;9.48;5.00;;;;;;;;;;5029983;28;20480;-83
2023/08/06 06:08:06;;;;;;;7.75;5.03;;;;;;;;;;5012707;28;20018;-84
2023/08/06 06:10:31;;;;;;;7.32;4.75;;;;;;;;;;5013823;28;20029;-84
2023/08/06 06:12:57;;;;;;;8.35;4.68;;;;;;;;;;5015203;28;20046;-84
2023/08/06 06:15:22;;;;;;;9.30;4.45;;;;;;;;;;5013790;28;20037;-84
2023/08/06 06:17:48;;;;;;;6.63;4.65;;;;;;;;;;5015173;28;20504;-84
2023/08/06 06:20:13;;;;;;;6.65;4.80;;;;;;;;;;5014684;28;20030;-84
2023/08/06 06:22:39;;;;;;;9.60;4.90;;;;;;;;;;5015160;28;20038;-84
2023/08/06 06:25:04;;;;;;;6.53;4.68;;;;;;;;;;5014700;28;20034;-84
2023/08/06 06:27:30;;;;;;;8.10;5.40;;;;;;;;;;5015113;28;20034;-84
2023/08/06 06:29:55;;;;;;;6.93;4.80;;;;;;;;;;5014218;28;20032;-85
2023/08/06 06:32:21;;;;;;;8.18;4.60;;;;;;;;;;5013718;28;20045;-82
2023/08/06 06:34:47;;;;;;;9.27;5.00;;;;;;;;;;5013790;28;20029;-85
2023/08/06 06:37:12;;;;;;;12.32;5.22;;;;;;;;;;4997281;28;20480;-85
2023/08/06 06:39:38;;;;;;;9.80;5.40;;;;;;;;;;5029818;28;20046;-85
2023/08/06 06:42:03;;;;;;;8.63;5.20;;;;;;;;;;4997160;28;20545;-85
2023/08/06 06:44:35;;;;;;;6.35;5.10;;;;;;;;;;5013434;28;20034;-85
2023/08/06 06:47:01;;;;;;;7.03;5.00;;;;;;;;;;5012715;28;20072;-86
2023/08/06 06:49:27;;;;;;;7.53;4.63;;;;;;;;;;5013319;28;20448;-84
2023/08/06 06:51:52;;;;;;;7.18;5.28;;;;;;;;;;5013375;28;20034;-85
2023/08/06 06:54:18;;;;;;;5.95;4.63;;;;;;;;;;5013069;28;20033;-85
2023/08/06 06:56:43;;;;;;;6.20;4.68;;;;;;;;;;5013254;28;20042;-84
2023/08/06 06:59:08;;;;;;;6.45;5.13;;;;;;;;;;5014542;28;20034;-85
2023/08/06 07:01:34;;;;;;;10.25;5.07;;;;;;;;;;5012425;28;20030;-85
2023/08/06 07:04:04;;;;;;;5.82;4.80;;;;;;;;;;5014025;28;20014;-85
2023/08/06 07:06:30;;;;;;;8.77;5.13;;;;;;;;;;4981625;28;20030;-85
2023/08/06 07:08:55;;;;;;;7.22;4.97;;;;;;;;;;5024106;28;20488;-85
2023/08/06 07:11:21;;;;;;;9.57;4.88;;;;;;;;;;5014845;28;20397;-85
2023/08/06 07:13:46;;;;;;;9.00;5.38;;;;;;;;;;5012159;28;20052;-84
2023/08/06 07:16:12;;;;;;;11.60;5.40;;;;;;;;;;5010763;28;20026;-83
2023/08/06 07:18:37;;;;;;;7.47;4.60;;;;;;;;;;5012411;28;20469;-81
2023/08/06 07:21:03;;;;;;;7.07;4.72;;;;;;;;;;5014387;28;20029;-84
2023/08/06 07:23:28;;;;;;;5.55;4.35;;;;;;;;;;5014560;28;20036;-83
2023/08/06 07:25:54;;;;;;;7.20;4.38;;;;;;;;;;5013130;28;20038;-84
2023/08/06 07:28:19;;;;;;;6.45;4.28;;;;;;;;;;5013086;28;20026;-84
2023/08/06 07:30:45;;;;;;;11.32;4.63;;;;;;;;;;5014202;28;20029;-84
2023/08/06 07:33:10;;;;;;;7.05;4.80;;;;;;;;;;5012180;28;20512;-84
2023/08/06 07:35:36;;;;;;;7.53;4.38;;;;;;;;;;4996155;28;20026;-85
2023/08/06 07:38:02;;;;;;;10.02;4.43;;;;;;;;;;5012766;28;20366;-85
2023/08/06 07:40:27;;;;;;;7.63;4.10;;;;;;;;;;5012654;28;20091;-86
2023/08/06 07:42:53;;;;;;;5.80;4.20;;;;;;;;;;5028688;28;20030;-84
2023/08/06 07:45:18;;;;;;;5.72;4.10;;;;;;;;;;5012761;28;20496;-84
2023/08/06 07:47:44;;;;;;;5.97;4.13;;;;;;;;;;4995173;28;20022;-84
2023/08/06 07:50:09;;;;;;;5.90;4.40;;;;;;;;;;5011905;28;20038;-83
2023/08/06 07:52:35;;;;;;;6.30;4.30;;;;;;;;;;5013680;28;20108;-85
2023/08/06 07:55:04;;;;;;;6.07;4.03;;;;;;;;;;4995735;28;20401;-84
2023/08/06 07:57:34;;;;;;;7.30;4.10;;;;;;;;;;5028087;28;20053;-84
2023/08/06 08:00:03;;;;;;;11.52;4.05;;;;;;;;;;5010084;28;20398;-83
2023/08/06 08:02:40;;;;;;;7.28;4.43;;;;;;;;;;4999878;28;20032;-84
2023/08/06 08:05:08;;;;;;;6.63;3.83;;;;;;;;;;5001706;28;20034;-84
2023/08/06 08:07:33;;;;;;;6.72;3.55;;;;;;;;;;5011075;28;20113;-84
2023/08/06 08:09:59;;;;;;;6.45;3.60;;;;;;;;;;5010356;28;20140;-84
2023/08/06 08:12:24;;;;;;;6.13;3.60;;;;;;;;;;5028067;28;20467;-84
2023/08/06 08:14:50;;;;;;;5.70;3.67;;;;;;;;;;5012807;28;20033;-84
2023/08/06 08:17:15;;;;;;;5.47;3.35;;;;;;;;;;5028283;28;20052;-84
2023/08/06 08:19:41;;;;;;;6.65;3.70;;;;;;;;;;5011571;28;20092;-84
2023/08/06 08:22:06;;;;;;;6.22;3.60;;;;;;;;;;5012949;28;20045;-84
2023/08/06 08:24:32;;;;;;;6.50;3.75;;;;;;;;;;5011871;28;20366;-84
2023/08/06 08:26:57;;;;;;;4.38;3.60;;;;;;;;;;5005743;28;20036;-84
2023/08/06 08:29:23;;;;;;;3.75;3.20;;;;;;;;;;5012751;28;20559;-84
2023/08/06 08:31:51;;;;;;;7.90;3.40;;;;;;;;;;5014589;28;20025;-84
2023/08/06 08:34:17;;;;;;;4.55;3.15;;;;;;;;;;5027822;28;20038;-84
2023/08/06 08:36:43;;;;;;;3.88;3.10;;;;;;;;;;5012306;28;20032;-84
2023/08/06 08:39:08;;;;;;;4.10;3.22;;;;;;;;;;4995089;28;20060;-83
2023/08/06 08:41:34;;;;;;;4.28;3.25;;;;;;;;;;5012236;28;20026;-83
2023/08/06 08:44:02;;;;;;;6.03;3.08;;;;;;;;;;5013067;28;20129;-84
2023/08/06 08:46:29;;;;;;;7.13;3.08;;;;;;;;;;4994186;28;20030;-84
2023/08/06 08:48:54;;;;;;;7.10;3.28;;;;;;;;;;5010977;28;20500;-83
2023/08/06 08:51:20;;;;;;;5.95;3.22;;;;;;;;;;5011123;28;20146;-83
2023/08/06 08:53:45;;;;;;;7.25;3.05;;;;;;;;;;5011688;28;20448;-83
2023/08/06 08:56:11;;;;;;;6.45;3.20;;;;;;;;;;4991549;28;20367;-83
2023/08/06 08:58:36;;;;;;;6.07;3.00;;;;;;;;;;5011462;28;20041;-85
2023/08/06 09:01:02;;;;;;;7.75;3.08;;;;;;;;;;5010852;28;20050;-84
2023/08/06 09:03:28;;;;;;;7.55;3.22;;;;;;;;;;5012463;28;20130;-85
2023/08/06 09:05:55;;;;;;;9.45;4.88;;;;;;;;;;5011164;28;20037;-83
2023/08/06 09:08:23;;;;;;;8.10;3.97;;;;;;;;;;5027145;28;20037;-82
2023/08/06 09:10:49;;;;;;;5.72;3.50;;;;;;;;;;5012837;28;20022;-83
2023/08/06 09:13:15;;;;;;;8.63;3.38;;;;;;;;;;5016291;28;20037;-83
2023/08/06 09:15:40;;;;;;;7.25;3.08;;;;;;;;;;5031681;28;20121;-83
2023/08/06 09:18:09;;;;;;;5.38;3.30;;;;;;;;;;5016121;28;20060;-82
2023/08/06 09:20:35;;;;;;;6.30;2.95;;;;;;;;;;5016489;28;20116;-82
2023/08/06 09:23:06;;;;;;;4.68;2.90;;;;;;;;;;5016269;28;20453;-83
2023/08/06 09:25:32;;;;;;;5.00;3.15;;;;;;;;;;5016930;28;20091;-83
2023/08/06 09:27:57;;;;;;;6.15;3.13;;;;;;;;;;5016163;28;20568;-82
2023/08/06 09:30:30;;;;;;;5.65;3.00;;;;;;;;;;5016346;28;20070;-83
2023/08/06 09:32:55;;;;;;;7.28;3.30;;;;;;;;;;5015916;28;20029;-82
2023/08/06 09:35:21;;;;;;;6.20;3.05;;;;;;;;;;5014898;28;20022;-83
2023/08/06 09:37:47;;;;;;;6.45;3.10;;;;;;;;;;5015509;28;20040;-82
2023/08/06 09:40:32;;;;;;;7.45;3.03;;;;;;;;;;5016123;28;20029;-83
2023/08/06 09:42:58;;;;;;;4.75;2.80;;;;;;;;;;5015369;28;20096;-83
2023/08/06 09:45:28;;;;;;;8.30;3.40;;;;;;;;;;5014742;28;20030;-84
2023/08/06 09:47:56;;;;;;;4.38;3.00;;;;;;;;;;5014868;28;20033;-83
2023/08/06 09:50:22;;;;;;;4.10;2.70;;;;;;;;;;5015758;28;20029;-83
2023/08/06 09:52:50;;;;;;;6.88;3.08;;;;;;;;;;5013908;28;20025;-83
2023/08/06 09:55:16;;;;;;;6.15;3.03;;;;;;;;;;4997882;28;20109;-82
2023/08/06 09:57:41;;;;;;;10.88;3.20;;;;;;;;;;5030594;28;20121;-84
2023/08/06 10:00:08;;;;;;;7.32;3.40;;;;;;;;;;5014236;28;20037;-83
2023/08/06 10:02:41;;;;;;;5.75;3.20;;;;;;;;;;5010531;28;20091;-83
2023/08/06 10:05:10;;;;;;;6.22;3.05;;;;;;;;;;5014219;28;20037;-82
2023/08/06 10:07:35;;;;;;;3.22;2.88;;;;;;;;;;5030139;28;20025;-82
2023/08/06 10:10:02;;;;;;;4.63;3.10;;;;;;;;;;4994420;28;20045;-83
2023/08/06 10:12:32;;;;;;;4.18;2.95;;;;;;;;;;5030411;28;20022;-83
2023/08/06 10:14:58;;;;;;;6.13;3.10;;;;;;;;;;5014016;28;20386;-83
2023/08/06 10:17:24;;;;;;;6.38;3.00;;;;;;;;;;5013320;28;20037;-83
2023/08/06 10:19:49;;;;;;;7.15;3.17;;;;;;;;;;5014041;28;20038;-83
2023/08/06 10:22:16;;;;;;;5.43;2.85;;;;;;;;;;5029209;28;20165;-82
2023/08/06 10:24:52;;;;;;;7.28;3.10;;;;;;;;;;5011490;28;20408;-83
2023/08/06 10:27:21;;;;;;;5.07;3.17;;;;;;;;;;5014598;28;20037;-82
2023/08/06 10:29:46;;;;;;;6.78;3.20;;;;;;;;;;5014727;28;20026;-82
2023/08/06 10:32:12;;;;;;;6.78;3.47;;;;;;;;;;5030156;28;20037;-83
2023/08/06 10:34:54;;;;;;;6.00;3.20;;;;;;;;;;5013636;28;20072;-82
2023/08/06 10:37:20;;;;;;;8.85;3.17;;;;;;;;;;4997355;28;20181;-83
2023/08/06 10:39:52;;;;;;;4.30;2.72;;;;;;;;;;5013350;28;20497;-83
2023/08/06 10:42:21;;;;;;;8.02;3.25;;;;;;;;;;5013932;28;20401;-83
2023/08/06 10:45:05;;;;;;;15.48;3.35;;;;;;;;;;5010338;28;20026;-83
2023/08/06 10:47:31;;;;;;;7.78;3.08;;;;;;;;;;5014821;28;20040;-82
2023/08/06 10:49:57;;;;;;;6.95;3.50;;;;;;;;;;5013224;28;20038;-82
2023/08/06 10:52:22;;;;;;;7.97;3.30;;;;;;;;;;5007810;28;20092;-82
2023/08/06 10:54:47;;;;;;;7.57;3.00;;;;;;;;;;5029871;28;20064;-81
2023/08/06 10:57:13;;;;;;;8.88;3.00;;;;;;;;;;4995997;28;20038;-82
2023/08/06 10:59:38;;;;;;;7.72;3.22;;;;;;;;;;5014233;28;20033;-82
2023/08/06 11:02:04;;;;;;;7.63;3.08;;;;;;;;;;5013097;28;20038;-82
2023/08/06 11:04:32;;;;;;;7.25;3.30;;;;;;;;;;5013057;28;20112;-82
2023/08/06 11:06:58;;;;;;;8.50;3.47;;;;;;;;;;5013955;28;20034;-82
2023/08/06 11:09:23;;;;;;;7.35;3.50;;;;;;;;;;5011636;28;20508;-82
2023/08/06 11:11:49;;;;;;;9.43;3.15;;;;;;;;;;5013743;28;20030;-82
2023/08/06 11:14:17;;;;;;;5.60;3.45;;;;;;;;;;5014043;28;20453;-81
2023/08/06 11:16:43;;;;;;;7.45;3.47;;;;;;;;;;4996411;28;20440;-81
2023/08/06 11:19:08;;;;;;;10.82;3.45;;;;;;;;;;5014141;28;20030;-82
2023/08/06 11:21:34;;;;;;;6.25;3.40;;;;;;;;;;5011980;28;20030;-83
2023/08/06 11:23:59;;;;;;;8.07;2.63;;;;;;;;;;5008956;28;20100;-83
2023/08/06 11:26:25;;;;;;;8.82;3.45;;;;;;;;;;5012186;28;20108;-83
2023/08/06 11:28:50;;;;;;;4.93;2.90;;;;;;;;;;5002524;28;20028;-84
2023/08/06 11:31:22;;;;;;;4.20;3.15;;;;;;;;;;5013622;28;20241;-84
2023/08/06 11:33:49;;;;;;;4.72;2.88;;;;;;;;;;5029155;28;20030;-84
2023/08/06 11:36:15;;;;;;;8.02;3.20;;;;;;;;;;5010709;28;20104;-84
2023/08/06 11:38:40;;;;;;;7.80;2.90;;;;;;;;;;5012118;28;20033;-84
2023/08/06 11:41:06;;;;;;;5.85;2.50;;;;;;;;;;5015259;28;20030;-82
2023/08/06 11:43:32;;;;;;;5.30;2.65;;;;;;;;;;4995909;28;20029;-84
2023/08/06 11:46:00;;;;;;;5.07;2.70;;;;;;;;;;5013532;28;20049;-84
2023/08/06 11:48:25;;;;;;;5.50;2.60;;;;;;;;;;5013620;28;20065;-83
2023/08/06 11:50:54;;;;;;;6.38;2.50;;;;;;;;;;5028582;28;20057;-84
2023/08/06 11:53:19;;;;;;;5.35;2.47;;;;;;;;;;5012184;28;20109;-84
2023/08/06 11:55:45;;;;;;;6.57;2.55;;;;;;;;;;4988177;28;20129;-84
2023/08/06 11:58:11;;;;;;;5.95;2.60;;;;;;;;;;5012217;28;20489;-84
2023/08/06 12:00:37;;;;;;;6.20;2.47;;;;;;;;;;5012174;28;20030;-84
2023/08/06 12:03:04;;;;;;;7.00;2.50;;;;;;;;;;4995471;28;20559;-84
2023/08/06 12:05:30;;;;;;;5.47;2.50;;;;;;;;;;5010439;28;20032;-84
2023/08/06 12:07:56;;;;;;;2.75;2.00;;;;;;;;;;5013040;28;20120;-84
2023/08/06 12:10:22;;;;;;;4.55;2.53;;;;;;;;;;5010301;28;20025;-84
2023/08/06 12:12:47;;;;;;;3.47;2.30;;;;;;;;;;5011862;28;20041;-84
2023/08/06 12:15:13;;;;;;;5.88;2.25;;;;;;;;;;4994228;28;20030;-83
2023/08/06 12:17:38;;;;;;;6.68;2.22;;;;;;;;;;5012122;28;20030;-83
2023/08/06 12:20:04;;;;;;;3.85;2.22;;;;;;;;;;5012815;28;20052;-84
2023/08/06 12:22:35;;;;;;;4.05;2.50;;;;;;;;;;5011400;28;20038;-83
2023/08/06 12:25:06;;;;;;;4.47;2.40;;;;;;;;;;5011990;28;20034;-84
2023/08/06 12:27:36;;;;;;;4.53;2.30;;;;;;;;;;5011691;28;20123;-84
2023/08/06 12:30:03;;;;;;;3.97;2.40;;;;;;;;;;4994388;28;20511;-83
2023/08/06 12:32:28;;;;;;;6.68;3.00;;;;;;;;;;5012833;28;20042;-85
2023/08/06 12:34:54;;;;;;;4.60;2.50;;;;;;;;;;5012043;28;20021;-83
2023/08/06 12:37:19;;;;;;;10.93;3.00;;;;;;;;;;5011684;28;20088;-84
2023/08/06 12:39:45;;;;;;;3.60;2.60;;;;;;;;;;5008532;28;20033;-86
2023/08/06 12:42:10;;;;;;;4.47;2.40;;;;;;;;;;5011415;28;20037;-84
2023/08/06 12:44:36;;;;;;;5.88;2.30;;;;;;;;;;5012033;28;20030;-84
2023/08/06 12:47:02;;;;;;;5.13;2.90;;;;;;;;;;5011406;28;20044;-84
2023/08/06 12:49:31;;;;;;;6.85;3.08;;;;;;;;;;4994959;28;20079;-83
2023/08/06 12:52:02;;;;;;;6.38;3.25;;;;;;;;;;5011487;28;20030;-85
2023/08/06 12:54:27;;;;;;;5.00;2.78;;;;;;;;;;5005755;28;20030;-83
2023/08/06 12:56:53;;;;;;;7.28;3.08;;;;;;;;;;5013087;28;20025;-82
2023/08/06 12:59:19;;;;;;;4.60;2.75;;;;;;;;;;5027389;28;20034;-84
2023/08/06 13:01:44;;;;;;;7.85;3.05;;;;;;;;;;5010902;28;20030;-83
2023/08/06 13:04:10;;;;;;;5.18;2.78;;;;;;;;;;5012482;28;20041;-84
2023/08/06 13:06:36;;;;;;;6.80;3.42;;;;;;;;;;5011214;28;20029;-83
2023/08/06 13:09:11;;;;;;;5.78;2.92;;;;;;;;;;5011246;28;20040;-84
2023/08/06 13:11:37;;;;;;;5.20;2.70;;;;;;;;;;5012654;28;20045;-83
2023/08/06 13:14:10;;;;;;;7.45;2.95;;;;;;;;;;5011100;28;20038;-84
2023/08/06 13:16:36;;;;;;;6.40;2.80;;;;;;;;;;4995011;28;20038;-84
2023/08/06 13:19:01;;;;;;;5.07;2.90;;;;;;;;;;5011103;28;20045;-83
2023/08/06 13:21:30;;;;;;;3.80;2.65;;;;;;;;;;5011159;28;20041;-83
2023/08/06 13:23:56;;;;;;;5.15;3.10;;;;;;;;;;5023767;28;20026;-85
2023/08/06 13:26:21;;;;;;;5.72;2.70;;;;;;;;;;5012104;28;20052;-84
2023/08/06 13:28:47;;;;;;;6.95;2.70;;;;;;;;;;5010878;28;20053;-83
2023/08/06 13:31:13;;;;;;;5.03;2.70;;;;;;;;;;5009799;28;20034;-83
2023/08/06 13:33:38;;;;;;;5.90;2.80;;;;;;;;;;5021768;28;20108;-84
2023/08/06 13:36:04;;;;;;;6.13;2.70;;;;;;;;;;5010631;28;20030;-85
2023/08/06 13:38:30;;;;;;;5.45;2.92;;;;;;;;;;5011216;28;20041;-83
2023/08/06 13:40:55;;;;;;;7.95;3.03;;;;;;;;;;5012084;28;20493;-85
2023/08/06 13:43:21;;;;;;;6.80;3.10;;;;;;;;;;5006888;28;20030;-84
2023/08/06 13:45:46;;;;;;;3.35;2.90;;;;;;;;;;5012238;28;20084;-83
2023/08/06 13:48:11;;;;;;;6.00;3.22;;;;;;;;;;5012628;28;20037;-84
2023/08/06 13:50:37;;;;;;;5.07;3.42;;;;;;;;;;5012370;28;20030;-84
2023/08/06 13:53:03;;;;;;;9.70;3.35;;;;;;;;;;4994961;28;20473;-85
2023/08/06 13:55:28;;;;;;;6.57;3.30;;;;;;;;;;5012248;28;20045;-83
2023/08/06 13:57:54;;;;;;;7.63;3.10;;;;;;;;;;4997581;28;20049;-84
2023/08/06 14:00:19;;;;;;;7.10;3.20;;;;;;;;;;5014776;28;20037;-84
2023/08/06 14:02:45;;;;;;;4.47;2.83;;;;;;;;;;5015521;28;20064;-84
2023/08/06 14:05:10;;;;;;;5.18;3.33;;;;;;;;;;5012466;28;20081;-83
2023/08/06 14:07:36;;;;;;;4.43;3.10;;;;;;;;;;5014765;28;20041;-84
2023/08/06 14:10:01;;;;;;;5.80;3.40;;;;;;;;;;5007804;28;20038;-87
2023/08/06 14:12:27;;;;;;;5.60;3.15;;;;;;;;;;5007650;28;20036;-84
2023/08/06 14:14:52;;;;;;;6.70;3.28;;;;;;;;;;5015168;28;20045;-85
2023/08/06 14:17:18;;;;;;;4.55;3.05;;;;;;;;;;5013718;28;20030;-84
2023/08/06 14:19:43;;;;;;;6.18;3.00;;;;;;;;;;5015052;28;20038;-84
2023/08/06 14:22:09;;;;;;;5.03;3.30;;;;;;;;;;5014884;28;20034;-84
2023/08/06 14:24:34;;;;;;;4.63;3.30;;;;;;;;;;5013338;28;20060;-84
2023/08/06 14:27:00;;;;;;;4.75;3.22;;;;;;;;;;5030366;28;20026;-85
2023/08/06 14:29:25;;;;;;;6.07;3.42;;;;;;;;;;5013345;28;20067;-84
2023/08/06 14:31:51;;;;;;;5.75;3.30;;;;;;;;;;5013760;28;20170;-85
2023/08/06 14:34:16;;;;;;;4.38;2.83;;;;;;;;;;5014857;28;20485;-83
2023/08/06 14:36:42;;;;;;;11.02;3.33;;;;;;;;;;5029838;28;20018;-83